Vista del Morro, Puerto Rico
Current Conditions -  °F | °C
As of 8:56 PM on Wednesday 17 Dec 2014 (Local Time) from TJSJ Reporting Station
Scattered Clouds Scattered Clouds  
Wind Chill: 79°   Ceiling: Unl
Heat Index: 81°   Visibility: 10mi
Dew Point: 68°   Wind: 9mph
Humidity: 69%   Direction: 20°NNE
Pressure: 30.05"   Gusts: NA
Location:  18.4443°N, 66.1386°W
Report Text: TJSJ 180056Z 02008KT 10SM SCT033 26/20 A3005 RMK AO2 SLP175 T02610200
Loading
Personal Weather Stations






























Interactive Weather Map New forecast layout! Learn more

10-Day Weather Forecast

Advertisements
Track Severe Weather on mobile